Aviation Digital Data Service (ADDS)

Output produced by METARs form (1554 UTC 20 March 2019)
found at http://www.aviationweather.gov/metar/data/
 
METAR text: KBDL 201551Z 20009KT 10SM FEW050 FEW250 09/M05 A3036 RMK AO2 SLP281 T00891050
Conditions at: KBDL (WINDSOR LOCKS , CT, US) observed 1551 UTC 20 March 2019
Temperature: 8.9°C (48°F)
Dewpoint: -5.0°C (23°F) [RH = 37%]
Pressure (altimeter): 30.36 inches Hg (1028.2 mb)
[Sea-level pressure: 1028.1 mb]
Winds: from the SSW (200 degrees) at 10 MPH (9 knots; 4.6 m/s)
Visibility: 10 or more miles (16+ km)
Ceiling: at least 12,000 feet AGL
Clouds: few clouds at 5000 feet AGL
few clouds at 25000 feet AGL
Weather: no significant weather observed at this time

METAR text: KBDL 201451Z 18009KT 10SM FEW250 07/M05 A3038 RMK AO2 SLP291 T00671050 58007
Conditions at: KBDL (WINDSOR LOCKS , CT, US) observed 1451 UTC 20 March 2019
Temperature: 6.7°C (44°F)
Dewpoint: -5.0°C (23°F) [RH = 43%]
Pressure (altimeter): 30.38 inches Hg (1028.9 mb)
[Sea-level pressure: 1029.1 mb]
Winds: from the S (180 degrees) at 10 MPH (9 knots; 4.6 m/s)
Visibility: 10 or more miles (16+ km)
Ceiling: at least 12,000 feet AGL
Clouds: few clouds at 25000 feet AGL
Weather: no significant weather observed at this time

METAR text: KBDL 201351Z 17007KT 10SM FEW090 04/M07 A3040 RMK AO2 SLP297 T00391067
Conditions at: KBDL (WINDSOR LOCKS , CT, US) observed 1351 UTC 20 March 2019
Temperature: 3.9°C (39°F)
Dewpoint: -6.7°C (20°F) [RH = 46%]
Pressure (altimeter): 30.40 inches Hg (1029.5 mb)
[Sea-level pressure: 1029.7 mb]
Winds: from the S (170 degrees) at 8 MPH (7 knots; 3.6 m/s)
Visibility: 10 or more miles (16+ km)
Ceiling: at least 12,000 feet AGL
Clouds: few clouds at 9000 feet AGL
Weather: no significant weather observed at this time

METAR text: KBDL 201251Z 00000KT 10SM FEW090 02/M06 A3041 RMK AO2 SLP299 T00171056
Conditions at: KBDL (WINDSOR LOCKS , CT, US) observed 1251 UTC 20 March 2019
Temperature: 1.7°C (35°F)
Dewpoint: -5.6°C (22°F) [RH = 58%]
Pressure (altimeter): 30.41 inches Hg (1029.9 mb)
[Sea-level pressure: 1029.9 mb]
Winds: calm
Visibility: 10 or more miles (16+ km)
Ceiling: at least 12,000 feet AGL
Clouds: few clouds at 9000 feet AGL
Weather: no significant weather observed at this time

METAR text: KBDL 201151Z 00000KT 10SM FEW090 M02/M06 A3040 RMK AO2 SLP298 T10221056 11006 21039 53005
Conditions at: KBDL (WINDSOR LOCKS , CT, US) observed 1151 UTC 20 March 2019
Temperature: -2.2°C (28°F)
Dewpoint: -5.6°C (22°F) [RH = 77%]
Pressure (altimeter): 30.40 inches Hg (1029.5 mb)
[Sea-level pressure: 1029.8 mb]
Winds: calm
Visibility: 10 or more miles (16+ km)
Ceiling: at least 12,000 feet AGL
Clouds: few clouds at 9000 feet AGL
Weather: no significant weather observed at this time

METAR text: KBDL 201051Z 00000KT 10SM FEW090 M03/M07 A3040 RMK AO2 SLP296 VIRGA DSNT E T10281067
Conditions at: KBDL (WINDSOR LOCKS , CT, US) observed 1051 UTC 20 March 2019
Temperature: -2.8°C (27°F)
Dewpoint: -6.7°C (20°F) [RH = 74%]
Pressure (altimeter): 30.40 inches Hg (1029.5 mb)
[Sea-level pressure: 1029.6 mb]
Winds: calm
Visibility: 10 or more miles (16+ km)
Ceiling: at least 12,000 feet AGL
Clouds: few clouds at 9000 feet AGL
Weather: no significant weather observed at this time

METAR text: KBDL 200951Z 00000KT 10SM SCT090 M03/M07 A3040 RMK AO2 SLP295 T10281067
Conditions at: KBDL (WINDSOR LOCKS , CT, US) observed 0951 UTC 20 March 2019
Temperature: -2.8°C (27°F)
Dewpoint: -6.7°C (20°F) [RH = 74%]
Pressure (altimeter): 30.40 inches Hg (1029.5 mb)
[Sea-level pressure: 1029.5 mb]
Winds: calm
Visibility: 10 or more miles (16+ km)
Ceiling: at least 12,000 feet AGL
Clouds: scattered clouds at 9000 feet AGL
Weather: no significant weather observed at this time

METAR text: KBDL 200851Z 00000KT 10SM BKN095 M01/M07 A3039 RMK AO2 SLP293 T10111067 58005
Conditions at: KBDL (WINDSOR LOCKS , CT, US) observed 0851 UTC 20 March 2019
Temperature: -1.1°C (30°F)
Dewpoint: -6.7°C (20°F) [RH = 66%]
Pressure (altimeter): 30.39 inches Hg (1029.2 mb)
[Sea-level pressure: 1029.3 mb]
Winds: calm
Visibility: 10 or more miles (16+ km)
Ceiling: 9500 feet AGL
Clouds: broken clouds at 9500 feet AGL
Weather: no significant weather observed at this time

METAR text: KBDL 200751Z 00000KT 10SM BKN095 M01/M07 A3040 RMK AO2 SLP295 T10111067
Conditions at: KBDL (WINDSOR LOCKS , CT, US) observed 0751 UTC 20 March 2019
Temperature: -1.1°C (30°F)
Dewpoint: -6.7°C (20°F) [RH = 66%]
Pressure (altimeter): 30.40 inches Hg (1029.5 mb)
[Sea-level pressure: 1029.5 mb]
Winds: calm
Visibility: 10 or more miles (16+ km)
Ceiling: 9500 feet AGL
Clouds: broken clouds at 9500 feet AGL
Weather: no significant weather observed at this time

METAR text: KBDL 200651Z 26003KT 10SM BKN095 M02/M06 A3041 RMK AO2 SLP299 T10171061
Conditions at: KBDL (WINDSOR LOCKS , CT, US) observed 0651 UTC 20 March 2019
Temperature: -1.7°C (29°F)
Dewpoint: -6.1°C (21°F) [RH = 72%]
Pressure (altimeter): 30.41 inches Hg (1029.9 mb)
[Sea-level pressure: 1029.9 mb]
Winds: from the W (260 degrees) at 3 MPH (3 knots; 1.5 m/s)
Visibility: 10 or more miles (16+ km)
Ceiling: 9500 feet AGL
Clouds: broken clouds at 9500 feet AGL
Weather: no significant weather observed at this time

METAR text: KBDL 200551Z 00000KT 10SM FEW085 M01/M07 A3041 RMK AO2 SLP298 T10111067 10039 21022 55003
Conditions at: KBDL (WINDSOR LOCKS , CT, US) observed 0551 UTC 20 March 2019
Temperature: -1.1°C (30°F)
Dewpoint: -6.7°C (20°F) [RH = 66%]
Pressure (altimeter): 30.41 inches Hg (1029.9 mb)
[Sea-level pressure: 1029.8 mb]
Winds: calm
Visibility: 10 or more miles (16+ km)
Ceiling: at least 12,000 feet AGL
Clouds: few clouds at 8500 feet AGL
Weather: no significant weather observed at this time

METAR text: KBDL 200451Z 30004KT 10SM FEW080 M01/M07 A3040 RMK AO2 SLP297 T10111072 400891039
Conditions at: KBDL (WINDSOR LOCKS , CT, US) observed 0451 UTC 20 March 2019
Temperature: -1.1°C (30°F)
Dewpoint: -7.2°C (19°F) [RH = 63%]
Pressure (altimeter): 30.40 inches Hg (1029.5 mb)
[Sea-level pressure: 1029.7 mb]
Winds: from the WNW (300 degrees) at 5 MPH (4 knots; 2.1 m/s)
Visibility: 10 or more miles (16+ km)
Ceiling: at least 12,000 feet AGL
Clouds: few clouds at 8000 feet AGL
Weather: no significant weather observed at this time

METAR text: KBDL 200351Z 25004KT 10SM SCT080 00/M07 A3041 RMK AO2 SLP298 T00001072
Conditions at: KBDL (WINDSOR LOCKS , CT, US) observed 0351 UTC 20 March 2019
Temperature: 0.0°C (32°F)
Dewpoint: -7.2°C (19°F) [RH = 58%]
Pressure (altimeter): 30.41 inches Hg (1029.9 mb)
[Sea-level pressure: 1029.8 mb]
Winds: from the WSW (250 degrees) at 5 MPH (4 knots; 2.1 m/s)
Visibility: 10 or more miles (16+ km)
Ceiling: at least 12,000 feet AGL
Clouds: scattered clouds at 8000 feet AGL
Weather: no significant weather observed at this time

METAR text: KBDL 200251Z 23003KT 10SM FEW050 M01/M08 A3041 RMK AO2 SLP300 T10111078 51011
Conditions at: KBDL (WINDSOR LOCKS , CT, US) observed 0251 UTC 20 March 2019
Temperature: -1.1°C (30°F)
Dewpoint: -7.8°C (18°F) [RH = 60%]
Pressure (altimeter): 30.41 inches Hg (1029.9 mb)
[Sea-level pressure: 1030.0 mb]
Winds: from the SW (230 degrees) at 3 MPH (3 knots; 1.5 m/s)
Visibility: 10 or more miles (16+ km)
Ceiling: at least 12,000 feet AGL
Clouds: few clouds at 5000 feet AGL
Weather: no significant weather observed at this time

METAR text: KBDL 200151Z 00000KT 10SM CLR 01/M08 A3041 RMK AO2 SLP298 T00111083
Conditions at: KBDL (WINDSOR LOCKS , CT, US) observed 0151 UTC 20 March 2019
Temperature: 1.1°C (34°F)
Dewpoint: -8.3°C (17°F) [RH = 49%]
Pressure (altimeter): 30.41 inches Hg (1029.9 mb)
[Sea-level pressure: 1029.8 mb]
Winds: calm
Visibility: 10 or more miles (16+ km)
Ceiling: at least 12,000 feet AGL
Clouds: sky clear below 12,000 feet AGL
Weather: no significant weather observed at this time

METAR text: KBDL 200051Z 32003KT 10SM FEW080 03/M09 A3040 RMK AO2 SLP294 T00281089
Conditions at: KBDL (WINDSOR LOCKS , CT, US) observed 0051 UTC 20 March 2019
Temperature: 2.8°C (37°F)
Dewpoint: -8.9°C (16°F) [RH = 42%]
Pressure (altimeter): 30.40 inches Hg (1029.5 mb)
[Sea-level pressure: 1029.4 mb]
Winds: from the NW (320 degrees) at 3 MPH (3 knots; 1.5 m/s)
Visibility: 10 or more miles (16+ km)
Ceiling: at least 12,000 feet AGL
Clouds: few clouds at 8000 feet AGL
Weather: no significant weather observed at this time

METAR text: KBDL 192351Z 31006KT 10SM FEW070 03/M09 A3038 RMK AO2 SLP289 T00331089 10089 20033 53013
Conditions at: KBDL (WINDSOR LOCKS , CT, US) observed 2351 UTC 19 March 2019
Temperature: 3.3°C (38°F)
Dewpoint: -8.9°C (16°F) [RH = 40%]
Pressure (altimeter): 30.38 inches Hg (1028.9 mb)
[Sea-level pressure: 1028.9 mb]
Winds: from the NW (310 degrees) at 7 MPH (6 knots; 3.1 m/s)
Visibility: 10 or more miles (16+ km)
Ceiling: at least 12,000 feet AGL
Clouds: few clouds at 7000 feet AGL
Weather: no significant weather observed at this time

METAR text: KBDL 192251Z 32007KT 10SM FEW045 FEW070 05/M09 A3037 RMK AO2 SLP285 T00501094
Conditions at: KBDL (WINDSOR LOCKS , CT, US) observed 2251 UTC 19 March 2019
Temperature: 5.0°C (41°F)
Dewpoint: -9.4°C (15°F) [RH = 34%]
Pressure (altimeter): 30.37 inches Hg (1028.5 mb)
[Sea-level pressure: 1028.5 mb]
Winds: from the NW (320 degrees) at 8 MPH (7 knots; 3.6 m/s)
Visibility: 10 or more miles (16+ km)
Ceiling: at least 12,000 feet AGL
Clouds: few clouds at 4500 feet AGL
few clouds at 7000 feet AGL
Weather: no significant weather observed at this time

METAR text: KBDL 192151Z 32011G19KT 10SM FEW070 07/M09 A3035 RMK AO2 SLP279 T00671094
Conditions at: KBDL (WINDSOR LOCKS , CT, US) observed 2151 UTC 19 March 2019
Temperature: 6.7°C (44°F)
Dewpoint: -9.4°C (15°F) [RH = 31%]
Pressure (altimeter): 30.35 inches Hg (1027.9 mb)
[Sea-level pressure: 1027.9 mb]
Winds: from the NW (320 degrees) at 13 MPH (11 knots; 5.7 m/s)
gusting to 22 MPH (19 knots; 9.8 m/s)
Visibility: 10 or more miles (16+ km)
Ceiling: at least 12,000 feet AGL
Clouds: few clouds at 7000 feet AGL
Weather: no significant weather observed at this time

METAR text: KBDL 192051Z 30015G21KT 10SM BKN070 08/M09 A3034 RMK AO2 SLP277 T00781089 55008
Conditions at: KBDL (WINDSOR LOCKS , CT, US) observed 2051 UTC 19 March 2019
Temperature: 7.8°C (46°F)
Dewpoint: -8.9°C (16°F) [RH = 29%]
Pressure (altimeter): 30.34 inches Hg (1027.5 mb)
[Sea-level pressure: 1027.7 mb]
Winds: from the WNW (300 degrees) at 17 MPH (15 knots; 7.7 m/s)
gusting to 24 MPH (21 knots; 10.8 m/s)
Visibility: 10 or more miles (16+ km)
Ceiling: 7000 feet AGL
Clouds: broken clouds at 7000 feet AGL
Weather: no significant weather observed at this time

METAR text: KBDL 191951Z 27016G21KT 10SM SCT070 BKN085 08/M09 A3034 RMK AO2 SLP276 VIRGE E-SE AND SW T00781094
Conditions at: KBDL (WINDSOR LOCKS , CT, US) observed 1951 UTC 19 March 2019
Temperature: 7.8°C (46°F)
Dewpoint: -9.4°C (15°F) [RH = 28%]
Pressure (altimeter): 30.34 inches Hg (1027.5 mb)
[Sea-level pressure: 1027.6 mb]
Winds: from the W (270 degrees) at 18 MPH (16 knots; 8.2 m/s)
gusting to 24 MPH (21 knots; 10.8 m/s)
Visibility: 10 or more miles (16+ km)
Ceiling: 8500 feet AGL
Clouds: scattered clouds at 7000 feet AGL
broken clouds at 8500 feet AGL
Weather: no significant weather observed at this time

METAR text: KBDL 191851Z 32012KT 10SM BKN075 BKN090 07/M09 A3035 RMK AO2 SLP279 VIRGA SE-SW T00721094
Conditions at: KBDL (WINDSOR LOCKS , CT, US) observed 1851 UTC 19 March 2019
Temperature: 7.2°C (45°F)
Dewpoint: -9.4°C (15°F) [RH = 30%]
Pressure (altimeter): 30.35 inches Hg (1027.9 mb)
[Sea-level pressure: 1027.9 mb]
Winds: from the NW (320 degrees) at 14 MPH (12 knots; 6.2 m/s)
Visibility: 10 or more miles (16+ km)
Ceiling: 7500 feet AGL
Clouds: broken clouds at 7500 feet AGL
broken clouds at 9000 feet AGL
Weather: no significant weather observed at this time

METAR text: KBDL 191751Z 28014KT 10SM BKN075 07/M10 A3037 RMK AO2 SLP285 T00671100 10089 21011 56012
Conditions at: KBDL (WINDSOR LOCKS , CT, US) observed 1751 UTC 19 March 2019
Temperature: 6.7°C (44°F)
Dewpoint: -10.0°C (14°F) [RH = 29%]
Pressure (altimeter): 30.37 inches Hg (1028.5 mb)
[Sea-level pressure: 1028.5 mb]
Winds: from the W (280 degrees) at 16 MPH (14 knots; 7.2 m/s)
Visibility: 10 or more miles (16+ km)
Ceiling: 7500 feet AGL
Clouds: broken clouds at 7500 feet AGL
Weather: no significant weather observed at this time

METAR text: KBDL 191651Z 31013KT 10SM SCT065 08/M11 A3038 RMK AO2 SLP289 T00781106
Conditions at: KBDL (WINDSOR LOCKS , CT, US) observed 1651 UTC 19 March 2019
Temperature: 7.8°C (46°F)
Dewpoint: -10.6°C (13°F) [RH = 26%]
Pressure (altimeter): 30.38 inches Hg (1028.9 mb)
[Sea-level pressure: 1028.9 mb]
Winds: from the NW (310 degrees) at 15 MPH (13 knots; 6.7 m/s)
Visibility: 10 or more miles (16+ km)
Ceiling: at least 12,000 feet AGL
Clouds: scattered clouds at 6500 feet AGL
Weather: no significant weather observed at this time

METAR text: KBDL 191551Z 29010KT 10SM FEW055 06/M09 A3039 RMK AO2 SLP292 T00611094
Conditions at: KBDL (WINDSOR LOCKS , CT, US) observed 1551 UTC 19 March 2019
Temperature: 6.1°C (43°F)
Dewpoint: -9.4°C (15°F) [RH = 32%]
Pressure (altimeter): 30.39 inches Hg (1029.2 mb)
[Sea-level pressure: 1029.2 mb]
Winds: from the WNW (290 degrees) at 12 MPH (10 knots; 5.1 m/s)
Visibility: 10 or more miles (16+ km)
Ceiling: at least 12,000 feet AGL
Clouds: few clouds at 5500 feet AGL
Weather: no significant weather observed at this time

METAR text: KBDL 191451Z 32010KT 280V350 10SM FEW045 04/M09 A3040 RMK AO2 SLP297 T00441094 51006
Conditions at: KBDL (WINDSOR LOCKS , CT, US) observed 1451 UTC 19 March 2019
Temperature: 4.4°C (40°F)
Dewpoint: -9.4°C (15°F) [RH = 36%]
Pressure (altimeter): 30.40 inches Hg (1029.5 mb)
[Sea-level pressure: 1029.7 mb]
Winds: from the NW (320 degrees) at 12 MPH (10 knots; 5.1 m/s)
Visibility: 10 or more miles (16+ km)
Ceiling: at least 12,000 feet AGL
Clouds: few clouds at 4500 feet AGL
Weather: no significant weather observed at this time

METAR text: KBDL 191351Z 33005KT 10SM FEW045 03/M08 A3040 RMK AO2 SLP296 T00331083
Conditions at: KBDL (WINDSOR LOCKS , CT, US) observed 1351 UTC 19 March 2019
Temperature: 3.3°C (38°F)
Dewpoint: -8.3°C (17°F) [RH = 42%]
Pressure (altimeter): 30.40 inches Hg (1029.5 mb)
[Sea-level pressure: 1029.6 mb]
Winds: from the NNW (330 degrees) at 6 MPH (5 knots; 2.6 m/s)
Visibility: 10 or more miles (16+ km)
Ceiling: at least 12,000 feet AGL
Clouds: few clouds at 4500 feet AGL
Weather: no significant weather observed at this time

METAR text: KBDL 191251Z 28003KT 10SM CLR 01/M08 A3040 RMK AO2 SLP296 T00111078
Conditions at: KBDL (WINDSOR LOCKS , CT, US) observed 1251 UTC 19 March 2019
Temperature: 1.1°C (34°F)
Dewpoint: -7.8°C (18°F) [RH = 51%]
Pressure (altimeter): 30.40 inches Hg (1029.5 mb)
[Sea-level pressure: 1029.6 mb]
Winds: from the W (280 degrees) at 3 MPH (3 knots; 1.5 m/s)
Visibility: 10 or more miles (16+ km)
Ceiling: at least 12,000 feet AGL
Clouds: sky clear below 12,000 feet AGL
Weather: no significant weather observed at this time

METAR text: KBDL 191151Z 00000KT 10SM CLR M01/M07 A3038 RMK AO2 SLP291 T10111067 10000 21039 53017
Conditions at: KBDL (WINDSOR LOCKS , CT, US) observed 1151 UTC 19 March 2019
Temperature: -1.1°C (30°F)
Dewpoint: -6.7°C (20°F) [RH = 66%]
Pressure (altimeter): 30.38 inches Hg (1028.9 mb)
[Sea-level pressure: 1029.1 mb]
Winds: calm
Visibility: 10 or more miles (16+ km)
Ceiling: at least 12,000 feet AGL
Clouds: sky clear below 12,000 feet AGL
Weather: no significant weather observed at this time

METAR text: KBDL 191051Z 28003KT 10SM CLR M02/M08 A3036 RMK AO2 SLP283 T10171083
Conditions at: KBDL (WINDSOR LOCKS , CT, US) observed 1051 UTC 19 March 2019
Temperature: -1.7°C (29°F)
Dewpoint: -8.3°C (17°F) [RH = 61%]
Pressure (altimeter): 30.36 inches Hg (1028.2 mb)
[Sea-level pressure: 1028.3 mb]
Winds: from the W (280 degrees) at 3 MPH (3 knots; 1.5 m/s)
Visibility: 10 or more miles (16+ km)
Ceiling: at least 12,000 feet AGL
Clouds: sky clear below 12,000 feet AGL
Weather: no significant weather observed at this time

METAR text: KBDL 190951Z 00000KT 10SM CLR M03/M08 A3035 RMK AO2 SLP279 T10281083
Conditions at: KBDL (WINDSOR LOCKS , CT, US) observed 0951 UTC 19 March 2019
Temperature: -2.8°C (27°F)
Dewpoint: -8.3°C (17°F) [RH = 66%]
Pressure (altimeter): 30.35 inches Hg (1027.9 mb)
[Sea-level pressure: 1027.9 mb]
Winds: calm
Visibility: 10 or more miles (16+ km)
Ceiling: at least 12,000 feet AGL
Clouds: sky clear below 12,000 feet AGL
Weather: no significant weather observed at this time

METAR text: KBDL 190851Z 30003KT 10SM CLR M03/M08 A3033 RMK AO2 SLP274 T10281078 51001
Conditions at: KBDL (WINDSOR LOCKS , CT, US) observed 0851 UTC 19 March 2019
Temperature: -2.8°C (27°F)
Dewpoint: -7.8°C (18°F) [RH = 68%]
Pressure (altimeter): 30.33 inches Hg (1027.2 mb)
[Sea-level pressure: 1027.4 mb]
Winds: from the WNW (300 degrees) at 3 MPH (3 knots; 1.5 m/s)
Visibility: 10 or more miles (16+ km)
Ceiling: at least 12,000 feet AGL
Clouds: sky clear below 12,000 feet AGL
Weather: no significant weather observed at this time

METAR text: KBDL 190751Z 24004KT 10SM CLR M02/M08 A3033 RMK AO2 SLP273 T10171078
Conditions at: KBDL (WINDSOR LOCKS , CT, US) observed 0751 UTC 19 March 2019
Temperature: -1.7°C (29°F)
Dewpoint: -7.8°C (18°F) [RH = 63%]
Pressure (altimeter): 30.33 inches Hg (1027.2 mb)
[Sea-level pressure: 1027.3 mb]
Winds: from the WSW (240 degrees) at 5 MPH (4 knots; 2.1 m/s)
Visibility: 10 or more miles (16+ km)
Ceiling: at least 12,000 feet AGL
Clouds: sky clear below 12,000 feet AGL
Weather: no significant weather observed at this time

METAR text: KBDL 190651Z 30008KT 10SM FEW055 FEW075 M01/M08 A3034 RMK AO2 SLP275 T10061078
Conditions at: KBDL (WINDSOR LOCKS , CT, US) observed 0651 UTC 19 March 2019
Temperature: -0.6°C (31°F)
Dewpoint: -7.8°C (18°F) [RH = 58%]
Pressure (altimeter): 30.34 inches Hg (1027.5 mb)
[Sea-level pressure: 1027.5 mb]
Winds: from the WNW (300 degrees) at 9 MPH (8 knots; 4.1 m/s)
Visibility: 10 or more miles (16+ km)
Ceiling: at least 12,000 feet AGL
Clouds: few clouds at 5500 feet AGL
few clouds at 7500 feet AGL
Weather: no significant weather observed at this time

METAR text: KBDL 190551Z 28003KT 10SM SCT070 BKN085 M02/M09 A3033 RMK AO2 SLP272 BKN V SCT T10171094 10028 21022 53004
Conditions at: KBDL (WINDSOR LOCKS , CT, US) observed 0551 UTC 19 March 2019
Temperature: -1.7°C (29°F)
Dewpoint: -9.4°C (15°F) [RH = 56%]
Pressure (altimeter): 30.33 inches Hg (1027.2 mb)
[Sea-level pressure: 1027.2 mb]
Winds: from the W (280 degrees) at 3 MPH (3 knots; 1.5 m/s)
Visibility: 10 or more miles (16+ km)
Ceiling: 8500 feet AGL
Clouds: scattered clouds at 7000 feet AGL
broken clouds at 8500 feet AGL
Weather: no significant weather observed at this time

METAR text: KBDL 190451Z 27004KT 10SM SCT095 M01/M10 A3032 RMK AO2 SLP268 T10111100 400721056
Conditions at: KBDL (WINDSOR LOCKS , CT, US) observed 0451 UTC 19 March 2019
Temperature: -1.1°C (30°F)
Dewpoint: -10.0°C (14°F) [RH = 51%]
Pressure (altimeter): 30.32 inches Hg (1026.8 mb)
[Sea-level pressure: 1026.8 mb]
Winds: from the W (270 degrees) at 5 MPH (4 knots; 2.1 m/s)
Visibility: 10 or more miles (16+ km)
Ceiling: at least 12,000 feet AGL
Clouds: scattered clouds at 9500 feet AGL
Weather: no significant weather observed at this time

Forecast for: KBDL (WINDSOR LOCKS , CT, US)
Text: KBDL 201502Z 2015/2118 18009KT P6SM FEW250
Forecast period: 1500 to 1900 UTC 20 March 2019
Forecast type: FROM: standard forecast or significant change
Winds: from the S (180 degrees) at 10 MPH (9 knots; 4.6 m/s)
Visibility: 6 or more miles 10+ km)
Ceiling: at least 12,000 feet AGL
Clouds: few clouds at 25000 feet AGL
Weather: no significant weather forecast for this period
Text: FM201900 21010KT P6SM FEW250
Forecast period: 1900 UTC 20 March 2019 to 0000 UTC 21 March 2019
Forecast type: FROM: standard forecast or significant change
Winds: from the SSW (210 degrees) at 12 MPH (10 knots; 5.1 m/s)
Visibility: 6 or more miles 10+ km)
Ceiling: at least 12,000 feet AGL
Clouds: few clouds at 25000 feet AGL
Weather: no significant weather forecast for this period
Text: FM210000 18006KT P6SM FEW150
Forecast period: 0000 to 0800 UTC 21 March 2019
Forecast type: FROM: standard forecast or significant change
Winds: from the S (180 degrees) at 7 MPH (6 knots; 3.1 m/s)
Visibility: 6 or more miles 10+ km)
Ceiling: at least 12,000 feet AGL
Clouds: few clouds at 15000 feet AGL
Weather: no significant weather forecast for this period
Text: FM210800 16003KT P6SM BKN100
Forecast period: 0800 to 1800 UTC 21 March 2019
Forecast type: FROM: standard forecast or significant change
Winds: from the SSE (160 degrees) at 3 MPH (3 knots; 1.5 m/s)
Visibility: 6 or more miles 10+ km)
Ceiling: 10000 feet AGL
Clouds: broken clouds at 10000 feet AGL
Weather: no significant weather forecast for this period